sensor_id;sensor_type;location;lat;lon;timestamp;temperature;humidity
65582;DHT22;52231;40.090;18.348;2023-11-21T00:01:54;12.50;93.50
65582;DHT22;52231;40.090;18.348;2023-11-21T00:04:22;12.40;93.50
65582;DHT22;52231;40.090;18.348;2023-11-21T00:06:51;12.40;93.60
65582;DHT22;52231;40.090;18.348;2023-11-21T00:09:19;12.40;93.60
65582;DHT22;52231;40.090;18.348;2023-11-21T00:11:47;12.40;93.60
65582;DHT22;52231;40.090;18.348;2023-11-21T00:14:15;12.50;93.80
65582;DHT22;52231;40.090;18.348;2023-11-21T00:16:45;12.50;93.80
65582;DHT22;52231;40.090;18.348;2023-11-21T00:19:13;12.50;93.80
65582;DHT22;52231;40.090;18.348;2023-11-21T00:21:41;12.60;93.90
65582;DHT22;52231;40.090;18.348;2023-11-21T00:24:12;12.60;93.90
65582;DHT22;52231;40.090;18.348;2023-11-21T00:27:00;12.50;93.90
65582;DHT22;52231;40.090;18.348;2023-11-21T00:29:28;12.60;93.90
65582;DHT22;52231;40.090;18.348;2023-11-21T00:31:56;12.60;94.00
65582;DHT22;52231;40.090;18.348;2023-11-21T00:34:24;12.60;94.00
65582;DHT22;52231;40.090;18.348;2023-11-21T00:36:52;12.60;94.00
65582;DHT22;52231;40.090;18.348;2023-11-21T00:39:21;12.70;94.10
65582;DHT22;52231;40.090;18.348;2023-11-21T00:41:49;12.60;94.10
65582;DHT22;52231;40.090;18.348;2023-11-21T00:44:18;12.60;94.10
65582;DHT22;52231;40.090;18.348;2023-11-21T00:46:47;12.50;94.10
65582;DHT22;52231;40.090;18.348;2023-11-21T00:49:15;12.50;94.10
65582;DHT22;52231;40.090;18.348;2023-11-21T00:51:43;12.50;94.20
65582;DHT22;52231;40.090;18.348;2023-11-21T00:54:11;12.50;94.20
65582;DHT22;52231;40.090;18.348;2023-11-21T00:56:39;12.60;94.20
65582;DHT22;52231;40.090;18.348;2023-11-21T00:59:08;12.50;94.20
65582;DHT22;52231;40.090;18.348;2023-11-21T01:01:36;12.50;94.30
65582;DHT22;52231;40.090;18.348;2023-11-21T01:04:06;12.50;94.30
65582;DHT22;52231;40.090;18.348;2023-11-21T01:06:37;12.50;94.30
65582;DHT22;52231;40.090;18.348;2023-11-21T01:09:05;12.50;94.30
65582;DHT22;52231;40.090;18.348;2023-11-21T01:11:36;12.50;94.20
65582;DHT22;52231;40.090;18.348;2023-11-21T01:14:05;12.40;94.30
65582;DHT22;52231;40.090;18.348;2023-11-21T01:16:34;12.30;94.20
65582;DHT22;52231;40.090;18.348;2023-11-21T01:19:04;12.30;94.20
65582;DHT22;52231;40.090;18.348;2023-11-21T01:21:32;12.20;94.20
65582;DHT22;52231;40.090;18.348;2023-11-21T01:24:00;12.20;94.20
65582;DHT22;52231;40.090;18.348;2023-11-21T01:26:28;12.20;94.20
65582;DHT22;52231;40.090;18.348;2023-11-21T01:28:56;12.20;94.20
65582;DHT22;52231;40.090;18.348;2023-11-21T01:31:25;12.10;94.20
65582;DHT22;52231;40.090;18.348;2023-11-21T01:33:57;12.10;94.20
65582;DHT22;52231;40.090;18.348;2023-11-21T01:36:33;12.10;94.20
65582;DHT22;52231;40.090;18.348;2023-11-21T01:39:01;12.10;94.20
65582;DHT22;52231;40.090;18.348;2023-11-21T01:41:30;12.20;94.20
65582;DHT22;52231;40.090;18.348;2023-11-21T01:43:58;12.10;94.30
65582;DHT22;52231;40.090;18.348;2023-11-21T01:46:26;12.10;94.20
65582;DHT22;52231;40.090;18.348;2023-11-21T01:48:54;12.10;94.30
65582;DHT22;52231;40.090;18.348;2023-11-21T01:51:22;12.20;94.30
65582;DHT22;52231;40.090;18.348;2023-11-21T01:53:51;12.20;94.30
65582;DHT22;52231;40.090;18.348;2023-11-21T01:56:19;12.20;94.30
65582;DHT22;52231;40.090;18.348;2023-11-21T01:58:47;12.20;94.30
65582;DHT22;52231;40.090;18.348;2023-11-21T02:01:16;12.30;94.40
65582;DHT22;52231;40.090;18.348;2023-11-21T02:03:46;12.30;94.40
65582;DHT22;52231;40.090;18.348;2023-11-21T02:06:15;12.30;94.40
65582;DHT22;52231;40.090;18.348;2023-11-21T02:08:43;12.30;94.40
65582;DHT22;52231;40.090;18.348;2023-11-21T02:11:12;12.30;94.40
65582;DHT22;52231;40.090;18.348;2023-11-21T02:13:43;12.30;94.40
65582;DHT22;52231;40.090;18.348;2023-11-21T02:16:13;12.30;94.40
65582;DHT22;52231;40.090;18.348;2023-11-21T02:18:41;12.30;94.40
65582;DHT22;52231;40.090;18.348;2023-11-21T02:21:09;12.30;94.40
65582;DHT22;52231;40.090;18.348;2023-11-21T02:23:37;12.30;94.40
65582;DHT22;52231;40.090;18.348;2023-11-21T02:26:10;12.30;94.40
65582;DHT22;52231;40.090;18.348;2023-11-21T02:28:39;12.30;94.40
65582;DHT22;52231;40.090;18.348;2023-11-21T02:31:07;12.30;94.40
65582;DHT22;52231;40.090;18.348;2023-11-21T02:33:35;12.40;94.50
65582;DHT22;52231;40.090;18.348;2023-11-21T02:36:04;12.50;94.50
65582;DHT22;52231;40.090;18.348;2023-11-21T02:38:32;12.60;94.50
65582;DHT22;52231;40.090;18.348;2023-11-21T02:41:01;12.60;94.50
65582;DHT22;52231;40.090;18.348;2023-11-21T02:43:29;12.60;94.50
65582;DHT22;52231;40.090;18.348;2023-11-21T02:45:57;12.70;94.50
65582;DHT22;52231;40.090;18.348;2023-11-21T02:48:25;12.70;94.50
65582;DHT22;52231;40.090;18.348;2023-11-21T02:50:53;12.60;94.50
65582;DHT22;52231;40.090;18.348;2023-11-21T02:53:21;12.70;94.70
65582;DHT22;52231;40.090;18.348;2023-11-21T02:55:49;12.80;94.60
65582;DHT22;52231;40.090;18.348;2023-11-21T02:58:17;12.80;94.60
65582;DHT22;52231;40.090;18.348;2023-11-21T03:00:45;13.00;94.60
65582;DHT22;52231;40.090;18.348;2023-11-21T03:03:13;13.10;94.60
65582;DHT22;52231;40.090;18.348;2023-11-21T03:05:42;13.20;94.60
65582;DHT22;52231;40.090;18.348;2023-11-21T03:08:10;13.30;94.70
65582;DHT22;52231;40.090;18.348;2023-11-21T03:10:38;13.30;94.70
65582;DHT22;52231;40.090;18.348;2023-11-21T03:13:07;13.20;94.70
65582;DHT22;52231;40.090;18.348;2023-11-21T03:15:36;13.20;94.70
65582;DHT22;52231;40.090;18.348;2023-11-21T03:18:04;13.10;94.70
65582;DHT22;52231;40.090;18.348;2023-11-21T03:20:32;13.10;94.70
65582;DHT22;52231;40.090;18.348;2023-11-21T03:23:01;13.10;94.80
65582;DHT22;52231;40.090;18.348;2023-11-21T03:25:29;13.00;94.80
65582;DHT22;52231;40.090;18.348;2023-11-21T03:27:57;13.00;94.80
65582;DHT22;52231;40.090;18.348;2023-11-21T03:30:25;12.90;94.70
65582;DHT22;52231;40.090;18.348;2023-11-21T03:32:53;12.90;94.70
65582;DHT22;52231;40.090;18.348;2023-11-21T03:35:21;12.90;94.80
65582;DHT22;52231;40.090;18.348;2023-11-21T03:37:49;12.90;94.80
65582;DHT22;52231;40.090;18.348;2023-11-21T03:40:19;13.00;94.80
65582;DHT22;52231;40.090;18.348;2023-11-21T03:42:49;13.00;94.80
65582;DHT22;52231;40.090;18.348;2023-11-21T03:45:20;13.10;94.80
65582;DHT22;52231;40.090;18.348;2023-11-21T03:47:51;13.20;94.80
65582;DHT22;52231;40.090;18.348;2023-11-21T03:50:19;13.20;94.80
65582;DHT22;52231;40.090;18.348;2023-11-21T03:52:47;13.20;94.80
65582;DHT22;52231;40.090;18.348;2023-11-21T03:55:15;13.10;94.80
65582;DHT22;52231;40.090;18.348;2023-11-21T03:57:44;13.10;94.80
65582;DHT22;52231;40.090;18.348;2023-11-21T04:00:13;13.10;94.90
65582;DHT22;52231;40.090;18.348;2023-11-21T04:02:41;13.00;94.90
65582;DHT22;52231;40.090;18.348;2023-11-21T04:05:09;13.00;94.90
65582;DHT22;52231;40.090;18.348;2023-11-21T04:07:37;12.90;94.90
65582;DHT22;52231;40.090;18.348;2023-11-21T04:10:06;12.90;94.90
65582;DHT22;52231;40.090;18.348;2023-11-21T04:12:36;13.00;94.90
65582;DHT22;52231;40.090;18.348;2023-11-21T04:15:05;13.10;95.00
65582;DHT22;52231;40.090;18.348;2023-11-21T04:17:33;13.00;94.90
65582;DHT22;52231;40.090;18.348;2023-11-21T04:20:01;13.00;95.00
65582;DHT22;52231;40.090;18.348;2023-11-21T04:22:29;13.00;94.90
65582;DHT22;52231;40.090;18.348;2023-11-21T04:24:57;12.90;94.90
65582;DHT22;52231;40.090;18.348;2023-11-21T04:27:25;12.90;94.90
65582;DHT22;52231;40.090;18.348;2023-11-21T04:29:53;12.90;95.00
65582;DHT22;52231;40.090;18.348;2023-11-21T04:32:21;12.90;95.00
65582;DHT22;52231;40.090;18.348;2023-11-21T04:34:49;12.90;95.00
65582;DHT22;52231;40.090;18.348;2023-11-21T04:37:17;12.90;95.00
65582;DHT22;52231;40.090;18.348;2023-11-21T04:39:45;12.90;95.00
65582;DHT22;52231;40.090;18.348;2023-11-21T04:42:13;12.90;95.10
65582;DHT22;52231;40.090;18.348;2023-11-21T04:44:41;12.80;95.00
65582;DHT22;52231;40.090;18.348;2023-11-21T04:47:10;12.90;95.00
65582;DHT22;52231;40.090;18.348;2023-11-21T04:49:42;12.90;95.10
65582;DHT22;52231;40.090;18.348;2023-11-21T04:52:11;12.90;95.10
65582;DHT22;52231;40.090;18.348;2023-11-21T04:54:39;12.90;95.00
65582;DHT22;52231;40.090;18.348;2023-11-21T04:57:07;12.80;95.10
65582;DHT22;52231;40.090;18.348;2023-11-21T04:59:35;12.80;95.10
65582;DHT22;52231;40.090;18.348;2023-11-21T05:02:04;12.80;95.10
65582;DHT22;52231;40.090;18.348;2023-11-21T05:04:33;12.70;95.10
65582;DHT22;52231;40.090;18.348;2023-11-21T05:07:01;12.70;95.00
65582;DHT22;52231;40.090;18.348;2023-11-21T05:09:29;12.70;95.10
65582;DHT22;52231;40.090;18.348;2023-11-21T05:12:00;12.70;95.10
65582;DHT22;52231;40.090;18.348;2023-11-21T05:14:28;12.70;95.20
65582;DHT22;52231;40.090;18.348;2023-11-21T05:16:56;12.70;95.20
65582;DHT22;52231;40.090;18.348;2023-11-21T05:19:24;12.70;95.20
65582;DHT22;52231;40.090;18.348;2023-11-21T05:21:52;12.70;95.10
65582;DHT22;52231;40.090;18.348;2023-11-21T05:24:20;12.60;95.10
65582;DHT22;52231;40.090;18.348;2023-11-21T05:26:48;12.60;95.10
65582;DHT22;52231;40.090;18.348;2023-11-21T05:29:17;12.60;95.10
65582;DHT22;52231;40.090;18.348;2023-11-21T05:31:45;12.60;95.10
65582;DHT22;52231;40.090;18.348;2023-11-21T05:34:13;12.70;95.10
65582;DHT22;52231;40.090;18.348;2023-11-21T05:36:43;12.60;95.10
65582;DHT22;52231;40.090;18.348;2023-11-21T05:39:14;12.70;95.20
65582;DHT22;52231;40.090;18.348;2023-11-21T05:41:45;12.80;95.20
65582;DHT22;52231;40.090;18.348;2023-11-21T05:44:14;12.70;95.10
65582;DHT22;52231;40.090;18.348;2023-11-21T05:46:42;12.70;95.10
65582;DHT22;52231;40.090;18.348;2023-11-21T05:49:11;12.80;95.10
65582;DHT22;52231;40.090;18.348;2023-11-21T05:51:39;12.80;95.10
65582;DHT22;52231;40.090;18.348;2023-11-21T05:54:08;12.90;95.10
65582;DHT22;52231;40.090;18.348;2023-11-21T05:56:36;13.00;95.10
65582;DHT22;52231;40.090;18.348;2023-11-21T05:59:04;13.10;95.00
65582;DHT22;52231;40.090;18.348;2023-11-21T06:01:34;13.30;95.00
65582;DHT22;52231;40.090;18.348;2023-11-21T06:04:02;13.40;95.00
65582;DHT22;52231;40.090;18.348;2023-11-21T06:06:31;13.50;95.00
65582;DHT22;52231;40.090;18.348;2023-11-21T06:08:59;13.60;95.00
65582;DHT22;52231;40.090;18.348;2023-11-21T06:11:27;13.70;95.00
65582;DHT22;52231;40.090;18.348;2023-11-21T06:13:55;13.80;95.00
65582;DHT22;52231;40.090;18.348;2023-11-21T06:16:24;13.90;95.00
65582;DHT22;52231;40.090;18.348;2023-11-21T06:18:52;14.00;95.00
65582;DHT22;52231;40.090;18.348;2023-11-21T06:21:20;14.00;95.00
65582;DHT22;52231;40.090;18.348;2023-11-21T06:23:48;14.10;95.00
65582;DHT22;52231;40.090;18.348;2023-11-21T06:26:17;14.10;94.90
65582;DHT22;52231;40.090;18.348;2023-11-21T06:28:46;14.20;94.90
65582;DHT22;52231;40.090;18.348;2023-11-21T06:31:14;14.30;94.90
65582;DHT22;52231;40.090;18.348;2023-11-21T06:33:42;14.50;94.90
65582;DHT22;52231;40.090;18.348;2023-11-21T06:36:10;14.80;94.90
65582;DHT22;52231;40.090;18.348;2023-11-21T06:38:41;15.10;94.90
65582;DHT22;52231;40.090;18.348;2023-11-21T06:41:09;15.30;94.90
65582;DHT22;52231;40.090;18.348;2023-11-21T06:43:37;15.40;94.90
65582;DHT22;52231;40.090;18.348;2023-11-21T06:46:05;15.30;95.00
65582;DHT22;52231;40.090;18.348;2023-11-21T06:48:34;15.10;95.00
65582;DHT22;52231;40.090;18.348;2023-11-21T06:51:02;15.00;95.10
65582;DHT22;52231;40.090;18.348;2023-11-21T06:53:30;14.90;95.10
65582;DHT22;52231;40.090;18.348;2023-11-21T06:55:58;14.90;95.10
65582;DHT22;52231;40.090;18.348;2023-11-21T06:58:26;15.20;95.10
65582;DHT22;52231;40.090;18.348;2023-11-21T07:00:54;15.60;95.10
65582;DHT22;52231;40.090;18.348;2023-11-21T07:03:22;15.80;95.10
65582;DHT22;52231;40.090;18.348;2023-11-21T07:05:51;16.00;95.00
65582;DHT22;52231;40.090;18.348;2023-11-21T07:08:19;16.00;95.00
65582;DHT22;52231;40.090;18.348;2023-11-21T07:10:47;16.10;95.00
65582;DHT22;52231;40.090;18.348;2023-11-21T07:13:16;15.90;95.00
65582;DHT22;52231;40.090;18.348;2023-11-21T07:15:45;15.80;95.10
65582;DHT22;52231;40.090;18.348;2023-11-21T07:18:13;15.70;95.10
65582;DHT22;52231;40.090;18.348;2023-11-21T07:20:41;15.70;95.10
65582;DHT22;52231;40.090;18.348;2023-11-21T07:23:09;15.70;95.00
65582;DHT22;52231;40.090;18.348;2023-11-21T07:25:38;15.80;95.00
65582;DHT22;52231;40.090;18.348;2023-11-21T07:28:06;15.70;94.90
65582;DHT22;52231;40.090;18.348;2023-11-21T07:30:34;15.70;95.00
65582;DHT22;52231;40.090;18.348;2023-11-21T07:33:02;15.80;94.90
65582;DHT22;52231;40.090;18.348;2023-11-21T07:35:30;15.80;94.90
65582;DHT22;52231;40.090;18.348;2023-11-21T07:37:58;15.90;94.80
65582;DHT22;52231;40.090;18.348;2023-11-21T07:40:26;15.90;94.80
65582;DHT22;52231;40.090;18.348;2023-11-21T07:42:56;15.90;94.80
65582;DHT22;52231;40.090;18.348;2023-11-21T07:45:25;15.90;94.80
65582;DHT22;52231;40.090;18.348;2023-11-21T07:47:55;16.00;94.80
65582;DHT22;52231;40.090;18.348;2023-11-21T07:50:23;16.10;94.80
65582;DHT22;52231;40.090;18.348;2023-11-21T07:52:51;16.20;94.80
65582;DHT22;52231;40.090;18.348;2023-11-21T07:55:22;16.30;94.70
65582;DHT22;52231;40.090;18.348;2023-11-21T07:57:50;16.30;94.70
65582;DHT22;52231;40.090;18.348;2023-11-21T08:00:19;16.40;94.70
65582;DHT22;52231;40.090;18.348;2023-11-21T08:02:49;16.50;94.50
65582;DHT22;52231;40.090;18.348;2023-11-21T08:05:16;16.60;94.50
65582;DHT22;52231;40.090;18.348;2023-11-21T08:07:45;16.80;94.30
65582;DHT22;52231;40.090;18.348;2023-11-21T08:10:13;16.90;94.20
65582;DHT22;52231;40.090;18.348;2023-11-21T08:12:41;17.00;94.10
65582;DHT22;52231;40.090;18.348;2023-11-21T08:15:10;16.90;93.90
65582;DHT22;52231;40.090;18.348;2023-11-21T08:17:38;16.90;93.70
65582;DHT22;52231;40.090;18.348;2023-11-21T08:20:07;17.00;93.60
65582;DHT22;52231;40.090;18.348;2023-11-21T08:22:36;17.30;93.30
65582;DHT22;52231;40.090;18.348;2023-11-21T08:25:05;17.50;92.70
65582;DHT22;52231;40.090;18.348;2023-11-21T08:27:33;17.60;92.20
65582;DHT22;52231;40.090;18.348;2023-11-21T08:30:06;17.80;91.70
65582;DHT22;52231;40.090;18.348;2023-11-21T08:32:35;17.90;91.00
65582;DHT22;52231;40.090;18.348;2023-11-21T08:35:03;18.20;90.20
65582;DHT22;52231;40.090;18.348;2023-11-21T08:37:32;18.40;89.40
65582;DHT22;52231;40.090;18.348;2023-11-21T08:40:01;18.60;88.60
65582;DHT22;52231;40.090;18.348;2023-11-21T08:42:29;18.70;87.40
65582;DHT22;52231;40.090;18.348;2023-11-21T08:44:58;18.80;86.60
65582;DHT22;52231;40.090;18.348;2023-11-21T08:47:26;18.90;86.50
65582;DHT22;52231;40.090;18.348;2023-11-21T08:49:54;19.20;85.60
65582;DHT22;52231;40.090;18.348;2023-11-21T08:52:22;19.40;85.00
65582;DHT22;52231;40.090;18.348;2023-11-21T08:54:50;19.60;84.30
65582;DHT22;52231;40.090;18.348;2023-11-21T08:57:23;19.60;83.50
65582;DHT22;52231;40.090;18.348;2023-11-21T08:59:51;19.80;83.30
65582;DHT22;52231;40.090;18.348;2023-11-21T09:02:23;20.10;81.90
65582;DHT22;52231;40.090;18.348;2023-11-21T09:04:51;20.20;81.20
65582;DHT22;52231;40.090;18.348;2023-11-21T09:07:20;20.40;80.60
65582;DHT22;52231;40.090;18.348;2023-11-21T09:09:48;20.50;79.90
65582;DHT22;52231;40.090;18.348;2023-11-21T09:12:17;20.30;79.70
65582;DHT22;52231;40.090;18.348;2023-11-21T09:14:47;20.30;80.50
65582;DHT22;52231;40.090;18.348;2023-11-21T09:17:15;20.30;80.00
65582;DHT22;52231;40.090;18.348;2023-11-21T09:19:43;20.30;80.00
65582;DHT22;52231;40.090;18.348;2023-11-21T09:22:14;20.20;80.20
65582;DHT22;52231;40.090;18.348;2023-11-21T09:24:43;20.20;80.40
65582;DHT22;52231;40.090;18.348;2023-11-21T09:27:11;20.40;78.60
65582;DHT22;52231;40.090;18.348;2023-11-21T09:29:39;20.70;75.90
65582;DHT22;52231;40.090;18.348;2023-11-21T09:32:07;20.90;75.40
65582;DHT22;52231;40.090;18.348;2023-11-21T09:34:38;21.10;74.50
65582;DHT22;52231;40.090;18.348;2023-11-21T09:37:06;21.10;74.10
65582;DHT22;52231;40.090;18.348;2023-11-21T09:39:35;20.90;74.20
65582;DHT22;52231;40.090;18.348;2023-11-21T09:42:12;21.00;73.90
65582;DHT22;52231;40.090;18.348;2023-11-21T09:45:05;20.90;73.70
65582;DHT22;52231;40.090;18.348;2023-11-21T09:47:37;20.90;74.10
65582;DHT22;52231;40.090;18.348;2023-11-21T09:50:06;20.90;73.40
65582;DHT22;52231;40.090;18.348;2023-11-21T09:53:14;21.00;73.50
65582;DHT22;52231;40.090;18.348;2023-11-21T09:55:45;21.40;72.70
65582;DHT22;52231;40.090;18.348;2023-11-21T09:58:14;21.60;73.80
65582;DHT22;52231;40.090;18.348;2023-11-21T10:00:53;21.40;74.50
65582;DHT22;52231;40.090;18.348;2023-11-21T10:03:21;21.30;74.10
65582;DHT22;52231;40.090;18.348;2023-11-21T10:05:51;21.30;74.50
65582;DHT22;52231;40.090;18.348;2023-11-21T10:08:22;21.30;74.70
65582;DHT22;52231;40.090;18.348;2023-11-21T10:10:53;21.20;75.50
65582;DHT22;52231;40.090;18.348;2023-11-21T10:13:21;21.20;75.50
65582;DHT22;52231;40.090;18.348;2023-11-21T10:15:51;20.90;76.10
65582;DHT22;52231;40.090;18.348;2023-11-21T10:18:19;20.80;76.70
65582;DHT22;52231;40.090;18.348;2023-11-21T10:20:50;20.60;77.60
65582;DHT22;52231;40.090;18.348;2023-11-21T10:23:21;20.60;78.00
65582;DHT22;52231;40.090;18.348;2023-11-21T10:25:52;20.40;78.40
65582;DHT22;52231;40.090;18.348;2023-11-21T10:28:20;20.20;79.70
65582;DHT22;52231;40.090;18.348;2023-11-21T10:30:48;20.10;80.60
65582;DHT22;52231;40.090;18.348;2023-11-21T10:33:17;20.00;81.40
65582;DHT22;52231;40.090;18.348;2023-11-21T10:35:48;20.00;81.00
65582;DHT22;52231;40.090;18.348;2023-11-21T10:38:23;20.10;80.60
65582;DHT22;52231;40.090;18.348;2023-11-21T10:40:52;20.10;80.20
65582;DHT22;52231;40.090;18.348;2023-11-21T10:43:25;20.30;80.40
65582;DHT22;52231;40.090;18.348;2023-11-21T10:45:57;20.30;79.80
65582;DHT22;52231;40.090;18.348;2023-11-21T10:48:27;20.40;79.70
65582;DHT22;52231;40.090;18.348;2023-11-21T10:50:55;20.50;79.50
65582;DHT22;52231;40.090;18.348;2023-11-21T10:53:28;20.50;79.50
65582;DHT22;52231;40.090;18.348;2023-11-21T10:56:06;20.50;79.40
65582;DHT22;52231;40.090;18.348;2023-11-21T10:58:38;20.40;79.40
65582;DHT22;52231;40.090;18.348;2023-11-21T11:01:08;20.40;79.10
65582;DHT22;52231;40.090;18.348;2023-11-21T11:03:39;20.50;79.70
65582;DHT22;52231;40.090;18.348;2023-11-21T11:06:07;20.60;79.20
65582;DHT22;52231;40.090;18.348;2023-11-21T11:08:58;20.70;78.70
65582;DHT22;52231;40.090;18.348;2023-11-21T11:11:28;20.80;78.30
65582;DHT22;52231;40.090;18.348;2023-11-21T11:13:59;20.80;78.30
65582;DHT22;52231;40.090;18.348;2023-11-21T11:16:28;20.70;78.80
65582;DHT22;52231;40.090;18.348;2023-11-21T11:18:57;20.60;79.20
65582;DHT22;52231;40.090;18.348;2023-11-21T11:22:19;20.60;79.40
65582;DHT22;52231;40.090;18.348;2023-11-21T11:30:16;21.30;76.80
65582;DHT22;52231;40.090;18.348;2023-11-21T11:38:50;20.60;78.80
65582;DHT22;52231;40.090;18.348;2023-11-21T11:41:30;20.80;78.90
65582;DHT22;52231;40.090;18.348;2023-11-21T11:44:01;21.10;77.90
65582;DHT22;52231;40.090;18.348;2023-11-21T11:46:45;21.20;77.40
65582;DHT22;52231;40.090;18.348;2023-11-21T11:49:24;21.30;77.30
65582;DHT22;52231;40.090;18.348;2023-11-21T11:55:00;20.80;78.00
65582;DHT22;52231;40.090;18.348;2023-11-21T11:57:32;20.20;80.10
65582;DHT22;52231;40.090;18.348;2023-11-21T12:02:58;20.10;81.40
65582;DHT22;52231;40.090;18.348;2023-11-21T12:05:33;20.00;81.40
65582;DHT22;52231;40.090;18.348;2023-11-21T12:08:07;20.10;81.40
65582;DHT22;52231;40.090;18.348;2023-11-21T12:10:37;20.20;80.90
65582;DHT22;52231;40.090;18.348;2023-11-21T12:13:08;20.20;80.50
65582;DHT22;52231;40.090;18.348;2023-11-21T12:15:38;20.20;80.20
65582;DHT22;52231;40.090;18.348;2023-11-21T12:18:08;20.10;80.40
65582;DHT22;52231;40.090;18.348;2023-11-21T12:20:36;20.00;80.80
65582;DHT22;52231;40.090;18.348;2023-11-21T12:23:07;20.10;81.00
65582;DHT22;52231;40.090;18.348;2023-11-21T12:25:37;20.10;81.00
65582;DHT22;52231;40.090;18.348;2023-11-21T12:28:09;20.10;80.80
65582;DHT22;52231;40.090;18.348;2023-11-21T12:30:38;20.20;80.70
65582;DHT22;52231;40.090;18.348;2023-11-21T12:33:08;20.20;80.40
65582;DHT22;52231;40.090;18.348;2023-11-21T12:35:37;20.10;80.60
65582;DHT22;52231;40.090;18.348;2023-11-21T12:38:06;20.00;80.80
65582;DHT22;52231;40.090;18.348;2023-11-21T12:40:36;19.90;81.30
65582;DHT22;52231;40.090;18.348;2023-11-21T12:43:07;19.90;81.40
65582;DHT22;52231;40.090;18.348;2023-11-21T12:45:35;19.80;81.80
65582;DHT22;52231;40.090;18.348;2023-11-21T12:48:06;19.80;82.00
65582;DHT22;52231;40.090;18.348;2023-11-21T12:50:39;19.90;82.20
65582;DHT22;52231;40.090;18.348;2023-11-21T12:53:09;20.10;81.70
65582;DHT22;52231;40.090;18.348;2023-11-21T12:55:38;20.20;81.20
65582;DHT22;52231;40.090;18.348;2023-11-21T12:58:08;20.40;80.90
65582;DHT22;52231;40.090;18.348;2023-11-21T13:00:43;20.50;80.70
65582;DHT22;52231;40.090;18.348;2023-11-21T13:03:13;20.80;80.30
65582;DHT22;52231;40.090;18.348;2023-11-21T13:05:48;20.70;80.20
65582;DHT22;52231;40.090;18.348;2023-11-21T13:08:20;20.70;80.30
65582;DHT22;52231;40.090;18.348;2023-11-21T13:10:53;20.80;80.40
65582;DHT22;52231;40.090;18.348;2023-11-21T13:13:30;20.70;80.50
65582;DHT22;52231;40.090;18.348;2023-11-21T13:16:01;20.60;80.90
65582;DHT22;52231;40.090;18.348;2023-11-21T13:18:32;20.60;81.10
65582;DHT22;52231;40.090;18.348;2023-11-21T13:21:05;20.50;81.60
65582;DHT22;52231;40.090;18.348;2023-11-21T13:23:45;20.80;81.20
65582;DHT22;52231;40.090;18.348;2023-11-21T13:26:14;20.80;80.40
65582;DHT22;52231;40.090;18.348;2023-11-21T13:28:43;20.80;80.10
65582;DHT22;52231;40.090;18.348;2023-11-21T13:31:15;20.70;80.20
65582;DHT22;52231;40.090;18.348;2023-11-21T13:33:51;20.60;80.50
65582;DHT22;52231;40.090;18.348;2023-11-21T13:36:23;20.50;80.80
65582;DHT22;52231;40.090;18.348;2023-11-21T13:38:52;20.60;81.10
65582;DHT22;52231;40.090;18.348;2023-11-21T13:41:21;20.50;81.40
65582;DHT22;52231;40.090;18.348;2023-11-21T13:43:59;20.50;81.40
65582;DHT22;52231;40.090;18.348;2023-11-21T13:46:48;20.30;81.70
65582;DHT22;52231;40.090;18.348;2023-11-21T13:49:16;20.20;82.20
65582;DHT22;52231;40.090;18.348;2023-11-21T13:51:44;20.00;82.80
65582;DHT22;52231;40.090;18.348;2023-11-21T13:54:14;19.90;83.00
65582;DHT22;52231;40.090;18.348;2023-11-21T13:56:42;19.70;83.50
65582;DHT22;52231;40.090;18.348;2023-11-21T13:59:13;19.60;83.90
65582;DHT22;52231;40.090;18.348;2023-11-21T14:01:49;19.40;84.00
65582;DHT22;52231;40.090;18.348;2023-11-21T14:04:21;19.30;83.90
65582;DHT22;52231;40.090;18.348;2023-11-21T14:06:59;19.30;84.10
65582;DHT22;52231;40.090;18.348;2023-11-21T14:09:39;19.20;84.00
65582;DHT22;52231;40.090;18.348;2023-11-21T14:12:12;19.20;83.60
65582;DHT22;52231;40.090;18.348;2023-11-21T14:14:41;19.10;82.70
65582;DHT22;52231;40.090;18.348;2023-11-21T14:17:09;19.10;82.10
65582;DHT22;52231;40.090;18.348;2023-11-21T14:19:38;19.00;81.60
65582;DHT22;52231;40.090;18.348;2023-11-21T14:22:11;19.00;81.50
65582;DHT22;52231;40.090;18.348;2023-11-21T14:24:39;19.00;81.80
65582;DHT22;52231;40.090;18.348;2023-11-21T14:27:14;18.90;82.10
65582;DHT22;52231;40.090;18.348;2023-11-21T14:29:42;18.80;82.50
65582;DHT22;52231;40.090;18.348;2023-11-21T14:32:12;18.80;82.90
65582;DHT22;52231;40.090;18.348;2023-11-21T14:34:42;18.80;83.20
65582;DHT22;52231;40.090;18.348;2023-11-21T14:37:15;18.70;83.30
65582;DHT22;52231;40.090;18.348;2023-11-21T14:39:43;18.60;83.10
65582;DHT22;52231;40.090;18.348;2023-11-21T14:42:17;18.60;82.60
65582;DHT22;52231;40.090;18.348;2023-11-21T14:44:55;18.50;82.20
65582;DHT22;52231;40.090;18.348;2023-11-21T14:47:31;18.50;82.20
65582;DHT22;52231;40.090;18.348;2023-11-21T14:50:01;18.40;82.40
65582;DHT22;52231;40.090;18.348;2023-11-21T14:52:49;18.30;82.90
65582;DHT22;52231;40.090;18.348;2023-11-21T14:55:27;18.30;83.50
65582;DHT22;52231;40.090;18.348;2023-11-21T14:58:09;18.30;84.00
65582;DHT22;52231;40.090;18.348;2023-11-21T15:00:41;18.20;84.30
65582;DHT22;52231;40.090;18.348;2023-11-21T15:03:13;18.10;84.70
65582;DHT22;52231;40.090;18.348;2023-11-21T15:06:10;18.00;84.90
65582;DHT22;52231;40.090;18.348;2023-11-21T15:08:56;18.00;85.10
65582;DHT22;52231;40.090;18.348;2023-11-21T15:11:47;17.90;85.10
65582;DHT22;52231;40.090;18.348;2023-11-21T15:14:15;17.90;85.10
65582;DHT22;52231;40.090;18.348;2023-11-21T15:16:49;17.90;85.10
65582;DHT22;52231;40.090;18.348;2023-11-21T15:19:21;17.80;85.10
65582;DHT22;52231;40.090;18.348;2023-11-21T15:21:54;17.80;85.10
65582;DHT22;52231;40.090;18.348;2023-11-21T15:24:22;17.80;85.40
65582;DHT22;52231;40.090;18.348;2023-11-21T15:26:50;17.80;85.80
65582;DHT22;52231;40.090;18.348;2023-11-21T15:29:19;17.70;86.10
65582;DHT22;52231;40.090;18.348;2023-11-21T15:31:49;17.70;86.70
65582;DHT22;52231;40.090;18.348;2023-11-21T15:34:17;17.70;86.90
65582;DHT22;52231;40.090;18.348;2023-11-21T15:36:46;17.70;87.30
65582;DHT22;52231;40.090;18.348;2023-11-21T15:39:16;17.60;87.60
65582;DHT22;52231;40.090;18.348;2023-11-21T15:41:45;17.60;87.80
65582;DHT22;52231;40.090;18.348;2023-11-21T15:44:13;17.60;88.10
65582;DHT22;52231;40.090;18.348;2023-11-21T15:46:41;17.60;88.30
65582;DHT22;52231;40.090;18.348;2023-11-21T15:49:10;17.60;88.40
65582;DHT22;52231;40.090;18.348;2023-11-21T15:51:45;17.50;88.50